Ana Sayfa
METAR-TAF:

METAR-TAF

Havaalanları :

Grodno, Beyaz Rusya

Enlem: 53-36-06N, Boylam: 024-03-18E, yükseklik: 135 m

Güncel hava durumu gözlemi

Rapor saat 15:00 UTC de 2 saat ve 7 dakika önce yapıldı.
Rüzgar kuzeybatıdan 17 kt ve 23 kt'a kadar ani rüzgarlar
Sıcaklık 7°C
Nem 42%
Basınç 1008 hPa
Görüş mesafesi 10 km veya daha fazla
3600 ft yükseklikte parçalı çok bulutlu

METAR: UMMG 241500Z 31009G12MPS 9999 BKN036 07/M05 Q1008 NOSIG

Saat: 20:07 (17:07 UTC)

Tahmin

Rapor saat 14:04 UTC de 3 saat ve 3 dakika önce yapıldı.
Ayın 24'si saat 15 UTC'den ayın 24'si saat 24 UTC'ye kadar geçerli Tahmin
Rüzgar kuzeybatıdan 12 kt ve 23 kt'a kadar ani rüzgarlar
Görüş mesafesi 10 km veya daha fazla
2000 ft yükseklikte parçalı çok bulutlu
Dönüşüyor
ayın 24'si saat 16 UTC'den ayın 24'si saat 18 UTC'ye kadar
Rüzgar batıdan 10 kt ve 19 kt'a kadar ani rüzgarlar

TAF: UMMG 241404Z 2415/2424 31006G12MPS 9999 BKN020 BECMG 2416/2418 27005G10MPS

4.000'den fazla havaalanı için hava durumu gözlemleri ve tahminleri (METAR ve TAF raporları).

Kullanılabilir istasyonlar harita üzerinde sarı ve kırmızı noktalarla gösterilir.

İstasyonun adını görmek için fareyi noktanın üzerinde gezdirin.

Sonrasında hava gözlem ve tahminlerini görmek için tıklayın.

Haritayı değiştirmek için: yaklaştırmak için siyah artı işaretli yeşil düğmeye ve uzaklaştırmak için de eksi işaretli düğmeye hızla tıklayın; bitişik haritalar için yeşil okları kullanın.


METAR-TAF: